Time;durP1;ratioP1;P1;durP2;ratioP2;P2;SDS_P1;SDS_P2;PMS_P1;PMS_P2;Temp;Humidity;BMP_temperature;BMP_pressure;BME280_temperature;BME280_humidity;BME280_pressure;Samples;Min_cycle;Max_cycle;Signal;HPM_P1;HPM_P2
2023/05/08 00:01:07;;;;;;;7.23;4.50;;;7.60;99.90;;;;;;4207059;28;20495;-74
2023/05/08 00:03:09;;;;;;;7.23;4.73;;;7.60;99.90;;;;;;4205576;28;20486;-74
2023/05/08 00:05:11;;;;;;;7.33;4.90;;;7.60;99.90;;;;;;4209767;28;20486;-74
2023/05/08 00:07:13;;;;;;;7.97;5.07;;;7.60;99.90;;;;;;4208508;28;20469;-74
2023/05/08 00:09:16;;;;;;;7.07;4.53;;;7.60;99.90;;;;;;4208262;28;20562;-73
2023/05/08 00:11:18;;;;;;;6.40;4.70;;;7.50;99.90;;;;;;4210252;28;20461;-74
2023/05/08 00:13:20;;;;;;;8.93;5.10;;;7.50;99.90;;;;;;4208256;28;20455;-74
2023/05/08 00:15:22;;;;;;;7.87;5.07;;;7.50;99.90;;;;;;4205395;28;20560;-73
2023/05/08 00:17:25;;;;;;;6.63;4.63;;;7.50;99.90;;;;;;4203020;28;20470;-73
2023/05/08 00:19:27;;;;;;;7.87;4.90;;;7.50;99.90;;;;;;4213408;28;20489;-72
2023/05/08 00:21:29;;;;;;;8.20;4.50;;;7.50;99.90;;;;;;4211990;28;20490;-72
2023/05/08 00:23:32;;;;;;;9.03;5.03;;;7.50;99.90;;;;;;4205609;28;20488;-72
2023/05/08 00:25:34;;;;;;;6.30;4.63;;;7.40;99.90;;;;;;4210628;28;21043;-73
2023/05/08 00:27:36;;;;;;;6.87;4.50;;;7.40;99.90;;;;;;4210049;28;20499;-72
2023/05/08 00:29:39;;;;;;;7.80;4.63;;;7.50;99.90;;;;;;4206596;28;20520;-72
2023/05/08 00:31:41;;;;;;;6.03;4.43;;;7.40;99.90;;;;;;4208858;28;20477;-73
2023/05/08 00:33:44;;;;;;;6.17;4.37;;;7.40;99.90;;;;;;4207287;28;20466;-72
2023/05/08 00:35:46;;;;;;;6.03;4.67;;;7.40;99.90;;;;;;4204109;28;21204;-73
2023/05/08 00:37:48;;;;;;;6.80;4.57;;;7.40;99.90;;;;;;4208981;28;20830;-73
2023/05/08 00:39:50;;;;;;;7.20;4.83;;;7.40;99.90;;;;;;4205774;28;20963;-73
2023/05/08 00:41:52;;;;;;;6.13;4.57;;;7.40;99.90;;;;;;4210640;28;20939;-73
2023/05/08 00:43:54;;;;;;;7.07;4.77;;;7.30;99.90;;;;;;4208990;28;20486;-73
2023/05/08 00:45:57;;;;;;;6.10;4.57;;;7.30;99.90;;;;;;4208437;28;20877;-73
2023/05/08 00:47:59;;;;;;;6.23;4.10;;;7.30;99.90;;;;;;4210603;28;20546;-73
2023/05/08 00:50:03;;;;;;;6.30;4.27;;;7.30;99.90;;;;;;4203566;28;20493;-73
2023/05/08 00:52:07;;;;;;;8.30;5.20;;;7.30;99.90;;;;;;4204163;28;21082;-73
2023/05/08 00:54:09;;;;;;;6.30;4.50;;;7.20;99.90;;;;;;4211707;28;20490;-73
2023/05/08 00:56:15;;;;;;;9.00;5.00;;;7.20;99.90;;;;;;4207439;28;20551;-73
2023/05/08 00:58:18;;;;;;;6.40;4.50;;;7.20;99.90;;;;;;4211647;28;20466;-74
2023/05/08 01:00:20;;;;;;;6.70;4.40;;;7.20;99.90;;;;;;4214079;28;20969;-73
2023/05/08 01:02:23;;;;;;;7.50;4.80;;;7.20;99.90;;;;;;4209195;28;20570;-74
2023/05/08 01:04:26;;;;;;;7.00;4.83;;;7.20;99.90;;;;;;4205925;28;20509;-73
2023/05/08 01:06:29;;;;;;;8.13;5.10;;;7.10;99.90;;;;;;4205548;28;20459;-73
2023/05/08 01:08:32;;;;;;;6.60;4.67;;;7.10;99.90;;;;;;4209045;28;20455;-73
2023/05/08 01:10:46;;;;;;;9.57;5.03;;;7.10;99.90;;;;;;4211658;28;20543;-73
2023/05/08 01:12:57;;;;;;;7.53;4.87;;;7.10;99.90;;;;;;4214245;28;20884;-73
2023/05/08 01:15:08;;;;;;;7.37;4.90;;;7.10;99.90;;;;;;4215492;28;21248;-74
2023/05/08 01:17:16;;;;;;;6.43;4.60;;;7.10;99.90;;;;;;4222964;28;20462;-73
2023/05/08 01:19:54;;;;;;;6.50;4.53;;;7.00;99.90;;;;;;4217728;28;20538;-73
2023/05/08 01:22:13;;;;;;;8.13;4.70;;;7.00;99.90;;;;;;4221419;28;20501;-74
2023/05/08 01:24:42;;;;;;;7.63;4.97;;;7.00;99.90;;;;;;4219211;28;20584;-73
2023/05/08 01:27:18;;;;;;;8.30;5.70;;;7.00;99.90;;;;;;4225321;28;20460;-73
2023/05/08 01:29:47;;;;;;;7.00;4.70;;;7.00;99.90;;;;;;4221086;28;20486;-74
2023/05/08 01:32:14;;;;;;;7.13;4.63;;;6.90;99.90;;;;;;4226532;28;20465;-73
2023/05/08 01:34:22;;;;;;;8.23;4.97;;;6.90;99.90;;;;;;4216530;28;20482;-73
2023/05/08 01:36:30;;;;;;;9.17;5.27;;;6.90;99.90;;;;;;4209728;28;20554;-73
2023/05/08 01:38:40;;;;;;;7.53;4.97;;;6.90;99.90;;;;;;4212213;28;20458;-73
2023/05/08 01:40:51;;;;;;;6.90;4.70;;;6.80;99.90;;;;;;4221007;28;20505;-73
2023/05/08 01:42:59;;;;;;;7.30;5.00;;;6.80;99.90;;;;;;4211304;28;20485;-72
2023/05/08 01:45:05;;;;;;;7.40;5.00;;;6.80;99.90;;;;;;4209618;28;20493;-73
2023/05/08 01:47:10;;;;;;;7.43;4.87;;;6.80;99.90;;;;;;4210296;28;20508;-74
2023/05/08 01:49:21;;;;;;;7.57;4.97;;;6.80;99.90;;;;;;4208922;28;20494;-73
2023/05/08 01:51:27;;;;;;;8.60;5.03;;;6.80;99.90;;;;;;4211713;28;20497;-73
2023/05/08 01:53:33;;;;;;;7.17;4.40;;;6.80;99.90;;;;;;4211266;28;20936;-73
2023/05/08 01:55:37;;;;;;;8.53;5.13;;;6.70;99.90;;;;;;4211730;28;20497;-73
2023/05/08 01:57:47;;;;;;;8.80;5.30;;;6.70;99.90;;;;;;4208145;28;20933;-73
2023/05/08 01:59:51;;;;;;;7.47;5.30;;;6.70;99.90;;;;;;4209454;28;20457;-73
2023/05/08 02:01:57;;;;;;;8.30;5.23;;;6.70;99.90;;;;;;4206490;28;20490;-74
2023/05/08 02:04:00;;;;;;;9.63;5.67;;;6.70;99.90;;;;;;4209975;28;20617;-73
2023/05/08 02:06:05;;;;;;;7.03;5.03;;;6.60;99.90;;;;;;4209035;28;20455;-73
2023/05/08 02:08:09;;;;;;;8.93;5.40;;;6.60;99.90;;;;;;4209700;28;20469;-73
2023/05/08 02:10:13;;;;;;;7.03;4.77;;;6.60;99.90;;;;;;4212962;28;20461;-73
2023/05/08 02:12:17;;;;;;;8.63;5.17;;;6.60;99.90;;;;;;4208633;28;20467;-73
2023/05/08 02:14:21;;;;;;;9.47;5.43;;;6.60;99.90;;;;;;4205651;28;20555;-74
2023/05/08 02:16:24;;;;;;;7.67;4.93;;;6.50;99.90;;;;;;4204557;28;20560;-74
2023/05/08 02:18:29;;;;;;;7.83;5.13;;;6.50;99.90;;;;;;4210189;28;20462;-75
2023/05/08 02:20:32;;;;;;;9.30;5.50;;;6.50;99.90;;;;;;4215161;28;20541;-75
2023/05/08 02:22:37;;;;;;;8.27;5.40;;;6.50;99.90;;;;;;4212555;28;20470;-75
2023/05/08 02:24:39;;;;;;;8.43;5.20;;;6.40;99.90;;;;;;4210008;28;20529;-74
2023/05/08 02:26:43;;;;;;;8.10;5.30;;;6.40;99.90;;;;;;4207843;28;20472;-75
2023/05/08 02:28:46;;;;;;;8.33;5.43;;;6.40;99.90;;;;;;4211405;28;20469;-74
2023/05/08 02:30:50;;;;;;;10.63;5.90;;;6.40;99.90;;;;;;4209083;28;20474;-74
2023/05/08 02:32:55;;;;;;;8.87;5.47;;;6.30;99.90;;;;;;4212562;28;20980;-74
2023/05/08 02:34:57;;;;;;;8.53;5.47;;;6.40;99.90;;;;;;4209888;28;20898;-74
2023/05/08 02:37:00;;;;;;;8.10;5.30;;;6.30;99.90;;;;;;4206022;28;20963;-74
2023/05/08 02:39:05;;;;;;;8.20;5.53;;;6.30;99.90;;;;;;4208772;28;20528;-75
2023/05/08 02:41:09;;;;;;;9.57;5.70;;;6.30;99.90;;;;;;4210103;28;20476;-74
2023/05/08 02:43:10;;;;;;;9.03;5.27;;;6.20;99.90;;;;;;4204968;28;20475;-74
2023/05/08 02:45:13;;;;;;;8.30;5.57;;;6.30;99.90;;;;;;4205840;28;20563;-74
2023/05/08 02:47:22;;;;;;;9.17;5.37;;;6.20;99.90;;;;;;4210157;28;20568;-75
2023/05/08 02:49:31;;;;;;;8.37;5.50;;;6.10;99.90;;;;;;4208839;28;20472;-74
2023/05/08 02:51:43;;;;;;;8.03;5.37;;;6.20;99.90;;;;;;4210117;28;20468;-74
2023/05/08 02:53:50;;;;;;;8.20;5.67;;;6.10;99.90;;;;;;4204961;28;20454;-74
2023/05/08 02:55:57;;;;;;;8.10;5.33;;;6.20;99.90;;;;;;4206857;28;20545;-74
2023/05/08 02:58:08;;;;;;;8.67;5.43;;;6.10;99.90;;;;;;4208274;28;20496;-74
2023/05/08 03:00:17;;;;;;;9.63;6.20;;;6.10;99.90;;;;;;4211176;28;20476;-74
2023/05/08 03:02:31;;;;;;;8.37;5.47;;;6.10;99.90;;;;;;4206867;28;20457;-74
2023/05/08 03:04:40;;;;;;;7.20;5.20;;;6.00;99.90;;;;;;4203961;28;20500;-74
2023/05/08 03:06:46;;;;;;;10.03;6.03;;;6.00;99.90;;;;;;4206933;28;20805;-74
2023/05/08 03:08:50;;;;;;;9.53;5.53;;;6.00;99.90;;;;;;4208481;28;20548;-74
2023/05/08 03:10:57;;;;;;;8.23;5.63;;;6.00;99.90;;;;;;4206430;28;20556;-74
2023/05/08 03:13:02;;;;;;;9.00;5.90;;;6.00;99.90;;;;;;4211107;28;20564;-75
2023/05/08 03:15:10;;;;;;;8.50;5.73;;;6.00;99.90;;;;;;4206633;28;20533;-74
2023/05/08 03:17:16;;;;;;;9.23;5.83;;;5.90;99.90;;;;;;4211214;28;20466;-74
2023/05/08 03:19:23;;;;;;;9.27;6.00;;;6.00;99.90;;;;;;4213775;28;20456;-74
2023/05/08 03:21:28;;;;;;;9.27;5.80;;;5.90;99.90;;;;;;4203817;28;20452;-74
2023/05/08 03:23:33;;;;;;;10.57;6.40;;;5.90;99.90;;;;;;4208836;28;20485;-74
2023/05/08 03:25:38;;;;;;;8.70;5.93;;;5.90;99.90;;;;;;4207338;28;20468;-74
2023/05/08 03:27:41;;;;;;;9.57;5.90;;;5.90;99.90;;;;;;4214066;28;20467;-74
2023/05/08 03:29:45;;;;;;;9.83;5.80;;;5.90;99.90;;;;;;4209823;28;20528;-74
2023/05/08 03:31:48;;;;;;;8.97;5.53;;;5.80;99.90;;;;;;4208474;28;20534;-74
2023/05/08 03:33:53;;;;;;;10.07;6.17;;;5.80;99.90;;;;;;4207656;28;20611;-74
2023/05/08 03:35:57;;;;;;;10.47;6.17;;;5.80;99.90;;;;;;4208279;28;20567;-74
2023/05/08 03:37:59;;;;;;;10.67;6.40;;;5.80;99.90;;;;;;4205045;28;20469;-74
2023/05/08 03:40:04;;;;;;;10.47;6.30;;;5.80;99.90;;;;;;4207670;28;20971;-74
2023/05/08 03:42:06;;;;;;;10.53;6.30;;;5.80;99.90;;;;;;4209387;28;20510;-74
2023/05/08 03:44:10;;;;;;;10.87;6.60;;;5.80;99.90;;;;;;4206758;28;20489;-75
2023/05/08 03:46:13;;;;;;;8.53;5.83;;;5.80;99.90;;;;;;4207517;28;20468;-74
2023/05/08 03:48:15;;;;;;;9.83;6.60;;;5.70;99.90;;;;;;4205877;28;20555;-74
2023/05/08 03:50:17;;;;;;;10.70;6.50;;;5.70;99.90;;;;;;4205210;28;20473;-74
2023/05/08 03:52:18;;;;;;;8.93;6.40;;;5.80;99.90;;;;;;4205439;28;20563;-74
2023/05/08 03:54:24;;;;;;;12.13;6.53;;;5.70;99.90;;;;;;4205931;28;20484;-74
2023/05/08 03:56:26;;;;;;;10.33;6.70;;;5.70;99.90;;;;;;4206250;28;20454;-75
2023/05/08 03:58:34;;;;;;;9.57;6.43;;;5.70;99.90;;;;;;4210408;28;20942;-75
2023/05/08 04:00:51;;;;;;;8.27;6.07;;;5.70;99.90;;;;;;4210259;28;20518;-75
2023/05/08 04:03:10;;;;;;;11.57;6.63;;;5.70;99.90;;;;;;4200516;28;20462;-75
2023/05/08 04:05:20;;;;;;;10.27;6.60;;;5.70;99.90;;;;;;4202202;28;20486;-74
2023/05/08 04:07:31;;;;;;;11.37;7.77;;;5.70;99.90;;;;;;4204021;28;20457;-74
2023/05/08 04:09:37;;;;;;;9.50;6.30;;;5.70;99.90;;;;;;4209707;28;20559;-75
2023/05/08 04:11:44;;;;;;;10.23;6.67;;;5.70;99.90;;;;;;4207681;28;20500;-75
2023/05/08 04:13:50;;;;;;;12.80;7.00;;;5.70;99.90;;;;;;4206973;28;20798;-74
2023/05/08 04:16:00;;;;;;;11.27;7.30;;;5.60;99.90;;;;;;4207920;28;20492;-74
2023/05/08 04:18:07;;;;;;;13.17;7.37;;;5.70;99.90;;;;;;4209516;28;20453;-74
2023/05/08 04:20:14;;;;;;;10.80;6.60;;;5.60;99.90;;;;;;4205809;28;20473;-73
2023/05/08 04:22:20;;;;;;;12.10;6.73;;;5.60;99.90;;;;;;4208258;28;20551;-73
2023/05/08 04:24:23;;;;;;;10.17;6.40;;;5.60;99.90;;;;;;4208074;28;20506;-73
2023/05/08 04:26:25;;;;;;;11.40;7.47;;;5.60;99.90;;;;;;4208930;28;20454;-74
2023/05/08 04:28:28;;;;;;;10.50;6.67;;;5.70;99.90;;;;;;4206840;28;20490;-74
2023/05/08 04:30:30;;;;;;;10.63;6.87;;;5.70;99.90;;;;;;4204649;28;20463;-74
2023/05/08 04:32:35;;;;;;;11.50;7.17;;;5.70;99.90;;;;;;4205426;28;20467;-74
2023/05/08 04:34:37;;;;;;;11.93;7.30;;;5.70;99.90;;;;;;4209577;28;20477;-74
2023/05/08 04:36:39;;;;;;;12.10;7.57;;;5.70;99.90;;;;;;4212007;28;20972;-73
2023/05/08 04:38:41;;;;;;;13.73;8.10;;;5.70;99.90;;;;;;4208452;28;20916;-74
2023/05/08 04:40:43;;;;;;;12.83;7.60;;;5.70;99.90;;;;;;4205115;28;20465;-74
2023/05/08 04:42:46;;;;;;;11.37;6.70;;;5.70;99.90;;;;;;4203668;28;20464;-74
2023/05/08 04:44:48;;;;;;;11.37;7.23;;;5.70;99.90;;;;;;4207566;28;20518;-73
2023/05/08 04:46:50;;;;;;;10.90;6.90;;;5.70;99.90;;;;;;4206257;28;20953;-74
2023/05/08 04:48:56;;;;;;;13.03;7.57;;;5.70;99.90;;;;;;4206417;28;20881;-74
2023/05/08 04:50:58;;;;;;;10.83;6.50;;;5.70;99.90;;;;;;4207567;28;20560;-74
2023/05/08 04:52:59;;;;;;;11.57;7.57;;;5.70;99.90;;;;;;4209365;28;20460;-73
2023/05/08 04:55:01;;;;;;;9.63;6.57;;;5.70;99.90;;;;;;4205466;28;20521;-73
2023/05/08 04:57:04;;;;;;;11.97;7.40;;;5.70;99.90;;;;;;4208313;28;20462;-73
2023/05/08 04:59:06;;;;;;;13.10;7.23;;;5.70;99.90;;;;;;4206938;28;20486;-72
2023/05/08 05:01:08;;;;;;;12.40;7.20;;;5.80;99.90;;;;;;4209666;28;20464;-73
2023/05/08 05:03:10;;;;;;;11.20;7.03;;;5.80;99.90;;;;;;4203961;28;20492;-74
2023/05/08 05:05:13;;;;;;;9.53;6.43;;;5.70;99.90;;;;;;4204944;28;20501;-74
2023/05/08 05:07:15;;;;;;;10.37;6.77;;;5.80;99.90;;;;;;4211365;28;20551;-74
2023/05/08 05:09:17;;;;;;;12.87;7.97;;;5.80;99.90;;;;;;4207146;28;21222;-73
2023/05/08 05:11:18;;;;;;;11.17;7.13;;;5.90;99.90;;;;;;4203148;28;21333;-73
2023/05/08 05:13:20;;;;;;;12.43;6.67;;;5.90;99.90;;;;;;4208261;28;20464;-73
2023/05/08 05:15:22;;;;;;;10.07;6.47;;;5.90;99.90;;;;;;4207044;28;20510;-73
2023/05/08 05:17:24;;;;;;;11.67;6.90;;;5.90;99.90;;;;;;4208254;28;20486;-73
2023/05/08 05:19:26;;;;;;;12.57;6.87;;;5.90;99.90;;;;;;4207429;28;20481;-73
2023/05/08 05:21:29;;;;;;;12.70;7.67;;;6.00;99.90;;;;;;4200774;28;20465;-73
2023/05/08 05:23:31;;;;;;;13.47;7.33;;;6.00;99.90;;;;;;4203933;28;20578;-73
2023/05/08 05:25:34;;;;;;;12.07;7.77;;;6.00;99.90;;;;;;4205846;28;20964;-74
2023/05/08 05:27:36;;;;;;;9.80;6.57;;;6.00;99.90;;;;;;4206616;28;20478;-73
2023/05/08 05:29:38;;;;;;;11.83;7.33;;;6.10;99.90;;;;;;4207367;28;20469;-72
2023/05/08 05:31:40;;;;;;;12.47;7.53;;;6.10;99.90;;;;;;4205493;28;20529;-73
2023/05/08 05:33:42;;;;;;;12.17;7.67;;;6.10;99.90;;;;;;4210313;28;20985;-73
2023/05/08 05:35:44;;;;;;;11.30;7.53;;;6.10;99.90;;;;;;4204701;28;20466;-73
2023/05/08 05:37:47;;;;;;;12.77;7.53;;;6.20;99.90;;;;;;4203872;28;20963;-73
2023/05/08 05:39:49;;;;;;;13.77;8.57;;;6.20;99.90;;;;;;4211626;28;20448;-73
2023/05/08 05:41:51;;;;;;;13.10;7.77;;;6.30;99.90;;;;;;4207423;28;20465;-73
2023/05/08 05:43:53;;;;;;;12.90;7.80;;;6.30;99.90;;;;;;4209604;28;20465;-73
2023/05/08 05:45:55;;;;;;;12.77;7.60;;;6.30;99.90;;;;;;4214637;28;20485;-73
2023/05/08 05:47:57;;;;;;;11.20;7.40;;;6.40;99.90;;;;;;4207782;28;21006;-74
2023/05/08 05:49:59;;;;;;;11.20;7.07;;;6.40;99.90;;;;;;4208485;28;20960;-73
2023/05/08 05:52:01;;;;;;;11.70;7.43;;;6.40;99.90;;;;;;4207890;28;21011;-73
2023/05/08 05:54:05;;;;;;;12.40;7.67;;;6.50;99.90;;;;;;4209292;28;20533;-74
2023/05/08 05:56:07;;;;;;;11.77;7.17;;;6.50;99.90;;;;;;4204794;28;20526;-74
2023/05/08 05:58:09;;;;;;;12.03;7.93;;;6.60;99.90;;;;;;4206249;28;20462;-76
2023/05/08 06:00:12;;;;;;;11.57;7.37;;;6.60;99.90;;;;;;4203239;28;20513;-74
2023/05/08 06:02:17;;;;;;;11.60;7.57;;;6.70;99.90;;;;;;4204075;28;20570;-74
2023/05/08 06:04:19;;;;;;;10.03;6.47;;;6.70;99.90;;;;;;4208050;28;21124;-74
2023/05/08 06:06:21;;;;;;;10.97;6.97;;;6.70;99.90;;;;;;4209196;28;20461;-74
2023/05/08 06:08:22;;;;;;;11.60;7.20;;;6.70;99.90;;;;;;4207379;28;20918;-74
2023/05/08 06:10:26;;;;;;;12.47;7.40;;;6.80;99.90;;;;;;4207069;28;20966;-74
2023/05/08 06:12:28;;;;;;;10.70;6.83;;;6.80;99.90;;;;;;4206579;28;20970;-75
2023/05/08 06:14:30;;;;;;;9.83;6.87;;;6.90;99.90;;;;;;4209672;28;20478;-74
2023/05/08 06:16:32;;;;;;;11.73;7.90;;;7.00;99.90;;;;;;4206943;28;20455;-74
2023/05/08 06:18:34;;;;;;;15.83;8.07;;;7.00;99.90;;;;;;4210724;28;20567;-75
2023/05/08 06:20:38;;;;;;;11.50;7.20;;;7.10;99.90;;;;;;4206030;28;20527;-75
2023/05/08 06:22:40;;;;;;;12.93;8.10;;;7.10;99.90;;;;;;4205888;28;20577;-75
2023/05/08 06:24:42;;;;;;;10.93;7.30;;;7.20;99.90;;;;;;4207964;28;20529;-75
2023/05/08 06:26:46;;;;;;;10.63;7.17;;;7.30;99.90;;;;;;4207116;28;21245;-75
2023/05/08 06:28:48;;;;;;;10.50;7.27;;;7.40;99.90;;;;;;4207863;28;20813;-75
2023/05/08 06:30:52;;;;;;;11.23;7.50;;;7.40;99.90;;;;;;4203834;28;20557;-75
2023/05/08 06:32:55;;;;;;;9.93;6.90;;;7.50;99.90;;;;;;4207860;28;20550;-76
2023/05/08 06:34:57;;;;;;;10.03;6.97;;;7.50;99.90;;;;;;4205601;28;20470;-74
2023/05/08 06:36:59;;;;;;;13.27;7.37;;;7.60;99.90;;;;;;4206982;28;21043;-75
2023/05/08 06:39:01;;;;;;;14.33;7.00;;;7.70;99.90;;;;;;4203529;28;20464;-74
2023/05/08 06:41:03;;;;;;;10.87;7.20;;;7.80;99.90;;;;;;4202702;28;20525;-75
2023/05/08 06:43:06;;;;;;;12.10;7.60;;;7.80;99.90;;;;;;4200295;28;20247;-75
2023/05/08 06:45:09;;;;;;;11.47;7.00;;;7.80;99.90;;;;;;4204068;28;20494;-80
2023/05/08 06:47:11;;;;;;;9.30;6.43;;;7.90;99.90;;;;;;4208510;28;20580;-75
2023/05/08 06:49:13;;;;;;;10.27;7.17;;;8.00;99.90;;;;;;4209901;28;20474;-75
2023/05/08 06:51:15;;;;;;;10.83;7.27;;;8.10;99.90;;;;;;4206195;28;20460;-79
2023/05/08 06:53:17;;;;;;;10.33;6.30;;;8.10;99.90;;;;;;4210686;28;20533;-76
2023/05/08 06:55:19;;;;;;;11.87;7.27;;;8.20;99.90;;;;;;4208869;28;20510;-75
2023/05/08 06:57:21;;;;;;;12.47;6.63;;;8.30;99.90;;;;;;4207116;28;20471;-75
2023/05/08 06:59:24;;;;;;;12.00;6.70;;;8.40;99.90;;;;;;4206951;28;20463;-75
2023/05/08 07:01:26;;;;;;;9.47;6.73;;;8.50;99.90;;;;;;4207263;28;20462;-76
2023/05/08 07:03:28;;;;;;;14.63;7.23;;;8.60;99.90;;;;;;4206175;28;20461;-75
2023/05/08 07:05:30;;;;;;;10.33;6.83;;;8.60;99.90;;;;;;4210285;28;20895;-74
2023/05/08 07:07:32;;;;;;;12.73;7.77;;;8.70;99.90;;;;;;4208686;28;20460;-75
2023/05/08 07:09:33;;;;;;;11.17;7.27;;;8.80;99.90;;;;;;4205453;28;20759;-75
2023/05/08 07:11:35;;;;;;;12.47;7.17;;;8.90;99.90;;;;;;4207643;28;20216;-75
2023/05/08 07:13:37;;;;;;;10.63;7.13;;;8.90;99.90;;;;;;4207461;28;20578;-75
2023/05/08 07:15:41;;;;;;;7.83;6.03;;;9.00;99.90;;;;;;4206398;28;20242;-75
2023/05/08 07:17:43;;;;;;;9.80;6.60;;;9.10;99.90;;;;;;4210161;28;20265;-76
2023/05/08 07:19:44;;;;;;;9.43;6.27;;;9.10;99.90;;;;;;4202974;28;20304;-76
2023/05/08 07:21:46;;;;;;;10.13;6.33;;;9.20;99.90;;;;;;4207642;28;20225;-75
2023/05/08 07:23:50;;;;;;;10.97;6.17;;;9.30;99.90;;;;;;4209282;28;20216;-75
2023/05/08 07:25:53;;;;;;;9.67;6.50;;;9.40;99.90;;;;;;4209225;28;20774;-73
2023/05/08 07:27:56;;;;;;;8.73;6.00;;;9.50;99.90;;;;;;4207627;28;20285;-73
2023/05/08 07:30:02;;;;;;;8.93;6.13;;;9.50;99.90;;;;;;4202848;28;20202;-73
2023/05/08 07:32:08;;;;;;;11.40;6.53;;;9.60;99.90;;;;;;4205438;28;20298;-73
2023/05/08 07:34:10;;;;;;;8.53;5.63;;;9.60;99.90;;;;;;4208358;28;20235;-75
2023/05/08 07:36:12;;;;;;;12.60;6.30;;;9.70;99.90;;;;;;4207081;28;20938;-72
2023/05/08 07:38:14;;;;;;;8.33;5.63;;;9.80;99.90;;;;;;4207012;28;20304;-72
2023/05/08 07:40:16;;;;;;;9.83;6.57;;;9.90;99.90;;;;;;4206484;28;20901;-77
2023/05/08 07:42:18;;;;;;;8.80;6.13;;;10.00;99.90;;;;;;4210445;28;20684;-72
2023/05/08 07:44:20;;;;;;;11.07;5.97;;;10.00;99.90;;;;;;4210182;28;20230;-73
2023/05/08 07:46:22;;;;;;;8.13;5.93;;;10.10;99.90;;;;;;4206899;28;20224;-74
2023/05/08 07:48:27;;;;;;;8.53;5.87;;;10.20;99.90;;;;;;4204382;28;20286;-73
2023/05/08 07:50:30;;;;;;;9.17;5.97;;;10.30;99.90;;;;;;4204245;28;20223;-73
2023/05/08 07:52:32;;;;;;;8.83;6.03;;;10.30;99.90;;;;;;4208275;28;20211;-74
2023/05/08 07:54:34;;;;;;;9.77;6.13;;;10.40;99.90;;;;;;4210281;28;20248;-74
2023/05/08 07:56:36;;;;;;;9.67;6.47;;;10.50;99.90;;;;;;4210156;28;20203;-73
2023/05/08 07:58:37;;;;;;;9.43;6.47;;;10.60;99.90;;;;;;4207487;28;20218;-73
2023/05/08 08:00:40;;;;;;;8.97;6.10;;;10.70;99.90;;;;;;4209363;28;20246;-75
2023/05/08 08:02:42;;;;;;;9.30;6.40;;;10.70;99.90;;;;;;4209488;28;20555;-75
2023/05/08 08:04:45;;;;;;;9.03;6.17;;;10.80;99.90;;;;;;4206895;28;20284;-75
2023/05/08 08:06:47;;;;;;;8.20;5.97;;;10.90;99.90;;;;;;4211086;28;20233;-74
2023/05/08 08:08:49;;;;;;;10.07;6.37;;;10.90;99.90;;;;;;4204412;28;20652;-73
2023/05/08 08:10:51;;;;;;;9.53;6.00;;;11.00;99.90;;;;;;4203557;28;20564;-72
2023/05/08 08:12:53;;;;;;;7.90;5.77;;;11.10;99.90;;;;;;4208183;28;20211;-73
2023/05/08 08:14:55;;;;;;;7.37;5.13;;;11.10;99.90;;;;;;4201688;28;20231;-74
2023/05/08 08:16:57;;;;;;;9.03;5.33;;;11.20;99.90;;;;;;4205657;28;20207;-74
2023/05/08 08:18:59;;;;;;;9.40;6.10;;;11.20;99.90;;;;;;4204457;28;20678;-73
2023/05/08 08:21:05;;;;;;;7.90;5.60;;;11.30;99.90;;;;;;4207790;28;20212;-75
2023/05/08 08:23:07;;;;;;;8.30;6.23;;;11.40;99.90;;;;;;4207979;28;20211;-74
2023/05/08 08:25:09;;;;;;;7.20;5.57;;;11.40;99.90;;;;;;4207044;28;20255;-75
2023/05/08 08:27:12;;;;;;;8.83;5.80;;;11.60;99.90;;;;;;4202905;28;20258;-75
2023/05/08 08:29:14;;;;;;;7.83;5.63;;;11.60;99.90;;;;;;4203305;28;20212;-73
2023/05/08 08:31:18;;;;;;;9.10;5.97;;;11.70;99.90;;;;;;4209201;28;20318;-74
2023/05/08 08:33:21;;;;;;;8.87;5.80;;;11.80;99.90;;;;;;4205982;28;20605;-74
2023/05/08 08:35:28;;;;;;;8.53;6.00;;;11.80;99.90;;;;;;4206831;28;20244;-74
2023/05/08 08:37:31;;;;;;;8.27;5.83;;;11.90;99.90;;;;;;4206877;28;20215;-74
2023/05/08 08:39:34;;;;;;;6.93;5.73;;;12.00;99.90;;;;;;4205898;28;21058;-74
2023/05/08 08:41:36;;;;;;;8.43;5.40;;;12.00;99.90;;;;;;4206034;28;20911;-74
2023/05/08 08:43:42;;;;;;;7.93;5.70;;;12.10;99.90;;;;;;4205518;28;20247;-74
2023/05/08 08:45:44;;;;;;;8.17;5.70;;;12.20;99.90;;;;;;4206486;28;20217;-74
2023/05/08 08:47:48;;;;;;;8.90;5.83;;;12.20;99.90;;;;;;4205731;28;20216;-75
2023/05/08 08:49:52;;;;;;;9.43;5.83;;;12.30;99.90;;;;;;4205854;28;20208;-75
2023/05/08 08:51:58;;;;;;;7.57;5.47;;;12.40;99.90;;;;;;4208232;28;20216;-75
2023/05/08 08:54:09;;;;;;;8.17;5.60;;;12.40;99.90;;;;;;4205977;28;20227;-74
2023/05/08 08:56:12;;;;;;;8.43;6.00;;;12.50;99.90;;;;;;4206542;28;20685;-74
2023/05/08 08:58:21;;;;;;;8.57;5.77;;;12.60;99.90;;;;;;4206514;28;20211;-75
2023/05/08 09:00:26;;;;;;;7.87;5.80;;;12.60;99.90;;;;;;4204059;28;20212;-74
2023/05/08 09:02:31;;;;;;;7.93;5.63;;;12.70;99.90;;;;;;4212192;28;20245;-75
2023/05/08 09:04:32;;;;;;;8.53;6.00;;;12.80;99.90;;;;;;4210149;28;20240;-75
2023/05/08 09:06:37;;;;;;;8.40;5.80;;;12.80;99.90;;;;;;4205963;28;20344;-75
2023/05/08 09:08:40;;;;;;;7.37;5.43;;;12.90;99.90;;;;;;4206568;28;20906;-75
2023/05/08 09:10:43;;;;;;;8.43;5.60;;;13.00;99.90;;;;;;4206634;28;20242;-75
2023/05/08 09:12:45;;;;;;;8.33;5.83;;;13.00;99.90;;;;;;4208937;28;20663;-74
2023/05/08 09:14:47;;;;;;;7.57;5.73;;;13.10;99.90;;;;;;4204519;28;20706;-74
2023/05/08 09:16:49;;;;;;;7.40;5.43;;;13.20;99.90;;;;;;4209376;28;20198;-73
2023/05/08 09:18:51;;;;;;;7.43;5.33;;;13.20;99.90;;;;;;4209070;28;20576;-74
2023/05/08 09:20:56;;;;;;;8.00;6.03;;;13.30;99.90;;;;;;4209692;28;20703;-74
2023/05/08 09:23:02;;;;;;;8.77;5.67;;;13.30;99.90;;;;;;4210669;28;20231;-74
2023/05/08 09:25:04;;;;;;;6.80;5.17;;;13.40;99.90;;;;;;4210172;28;20324;-74
2023/05/08 09:27:21;;;;;;;8.40;5.53;;;13.50;99.90;;;;;;4206387;28;20235;-74
2023/05/08 09:29:23;;;;;;;7.50;5.30;;;13.60;99.90;;;;;;4210979;28;20257;-74
2023/05/08 09:31:35;;;;;;;8.07;5.47;;;13.60;99.90;;;;;;4209138;28;20236;-74
2023/05/08 09:33:44;;;;;;;8.33;5.23;;;13.80;99.90;;;;;;4207680;28;20209;-74
2023/05/08 09:35:47;;;;;;;7.17;5.50;;;13.80;99.90;;;;;;4209338;28;20287;-74
2023/05/08 09:37:49;;;;;;;7.43;5.10;;;13.90;99.90;;;;;;4209530;28;20194;-74
2023/05/08 09:39:51;;;;;;;7.40;4.77;;;13.90;99.90;;;;;;4208695;28;20662;-74
2023/05/08 09:42:00;;;;;;;7.30;4.87;;;14.00;99.90;;;;;;4210754;28;20206;-75
2023/05/08 09:44:04;;;;;;;7.53;4.97;;;14.10;99.90;;;;;;4210325;28;20251;-74
2023/05/08 09:46:23;;;;;;;7.07;4.63;;;14.20;99.90;;;;;;4209486;28;20272;-74
2023/05/08 09:48:37;;;;;;;6.40;4.73;;;14.30;99.90;;;;;;4204795;28;20227;-74
2023/05/08 09:50:39;;;;;;;6.07;4.53;;;14.30;99.90;;;;;;4206179;28;20288;-74
2023/05/08 09:52:47;;;;;;;7.73;5.17;;;14.40;99.90;;;;;;4208805;28;20311;-75
2023/05/08 09:54:56;;;;;;;9.43;4.80;;;14.50;99.90;;;;;;4209316;28;20233;-74
2023/05/08 09:56:58;;;;;;;8.07;4.70;;;14.60;99.90;;;;;;4204130;28;20207;-75
2023/05/08 09:59:00;;;;;;;6.80;4.60;;;14.70;99.90;;;;;;4207512;28;20289;-77
2023/05/08 10:01:03;;;;;;;8.17;4.80;;;14.70;99.90;;;;;;4216138;28;20313;-77
2023/05/08 10:03:05;;;;;;;7.60;4.53;;;14.80;99.90;;;;;;4210326;28;20642;-77
2023/05/08 10:05:24;;;;;;;6.70;4.40;;;14.80;99.90;;;;;;4213678;28;20234;-76
2023/05/08 10:07:31;;;;;;;6.00;4.13;;;15.00;99.90;;;;;;4209718;28;20752;-77
2023/05/08 10:09:33;;;;;;;9.20;4.17;;;15.00;99.90;;;;;;4210321;28;20290;-76
2023/05/08 10:11:35;;;;;;;4.60;3.73;;;15.00;99.90;;;;;;4211694;28;20801;-74
2023/05/08 10:13:37;;;;;;;4.80;3.60;;;15.10;99.90;;;;;;4211174;28;20306;-77
2023/05/08 10:15:42;;;;;;;5.07;3.70;;;15.20;99.90;;;;;;4205413;28;20277;-73
2023/05/08 10:17:51;;;;;;;5.10;3.60;;;15.30;99.90;;;;;;4204358;28;20659;-73
2023/05/08 10:19:59;;;;;;;6.57;3.40;;;15.30;99.90;;;;;;4209745;28;20717;-73
2023/05/08 10:22:02;;;;;;;4.70;3.70;;;15.50;99.90;;;;;;4210225;28;20215;-73
2023/05/08 10:24:06;;;;;;;4.83;3.80;;;15.60;99.90;;;;;;4210644;28;20300;-73
2023/05/08 10:26:11;;;;;;;5.33;3.63;;;15.70;99.90;;;;;;4210765;28;20708;-74
2023/05/08 10:28:18;;;;;;;4.43;3.60;;;15.80;99.90;;;;;;4205687;28;20239;-74
2023/05/08 10:30:24;;;;;;;4.90;3.27;;;15.90;99.90;;;;;;4210698;28;20209;-74
2023/05/08 10:32:28;;;;;;;4.03;3.30;;;16.00;99.90;;;;;;4212191;28;20221;-74
2023/05/08 10:34:32;;;;;;;5.07;3.03;;;16.10;99.90;;;;;;4208033;28;20339;-74
2023/05/08 10:36:36;;;;;;;7.17;3.57;;;16.20;99.90;;;;;;4207634;28;20205;-74
2023/05/08 10:38:39;;;;;;;5.50;3.40;;;16.30;99.90;;;;;;4205482;28;20327;-74
2023/05/08 10:40:42;;;;;;;4.17;2.90;;;16.40;99.90;;;;;;4207747;28;20222;-74
2023/05/08 10:42:44;;;;;;;4.97;3.20;;;16.40;99.90;;;;;;4208838;28;20804;-74
2023/05/08 10:44:46;;;;;;;4.87;3.37;;;16.60;99.90;;;;;;4209230;28;20239;-74
2023/05/08 10:46:54;;;;;;;3.90;2.90;;;16.60;99.90;;;;;;4208661;28;20240;-75
2023/05/08 10:49:06;;;;;;;3.57;2.80;;;16.70;99.90;;;;;;4207324;28;20211;-74
2023/05/08 10:51:15;;;;;;;3.67;2.93;;;16.80;99.90;;;;;;4209335;28;20213;-74